Time;durP1;ratioP1;P1;durP2;ratioP2;P2;SDS_P1;SDS_P2;PMS_P1;PMS_P2;Temp;Humidity;BMP_temperature;BMP_pressure;BME280_temperature;BME280_humidity;BME280_pressure;Samples;Min_cycle;Max_cycle;Signal;HPM_P1;HPM_P2
2023/04/26 00:02:11;;;;;;;3.13;1.67;;;7.20;95.10;;;;;;5033161;28;20708;-76
2023/04/26 00:04:38;;;;;;;2.33;1.13;;;7.20;95.20;;;;;;5044012;28;20867;-76
2023/04/26 00:07:06;;;;;;;4.80;1.10;;;7.20;95.40;;;;;;5037131;28;20235;-76
2023/04/26 00:09:32;;;;;;;3.58;1.20;;;7.20;95.50;;;;;;5041346;28;20201;-76
2023/04/26 00:11:58;;;;;;;3.10;1.10;;;7.10;95.60;;;;;;5032880;28;20269;-76
2023/04/26 00:14:25;;;;;;;3.25;1.02;;;7.10;95.70;;;;;;5046912;28;20645;-76
2023/04/26 00:16:53;;;;;;;2.83;1.23;;;7.10;95.80;;;;;;5041382;28;20248;-76
2023/04/26 00:19:20;;;;;;;3.03;0.98;;;7.00;96.00;;;;;;5048766;28;20173;-74
2023/04/26 00:21:45;;;;;;;2.17;0.88;;;7.00;96.10;;;;;;5048835;28;20185;-74
2023/04/26 00:24:11;;;;;;;3.27;1.43;;;7.00;96.10;;;;;;5013938;28;20627;-75
2023/04/26 00:26:37;;;;;;;2.77;1.00;;;6.90;96.20;;;;;;5034725;28;20209;-75
2023/04/26 00:29:06;;;;;;;3.97;1.40;;;6.90;96.30;;;;;;5039642;28;20169;-76
2023/04/26 00:31:31;;;;;;;4.03;1.20;;;6.90;96.70;;;;;;5038645;28;20273;-75
2023/04/26 00:33:57;;;;;;;3.37;1.30;;;6.80;96.60;;;;;;5035311;28;20189;-76
2023/04/26 00:36:23;;;;;;;2.40;1.20;;;6.80;96.80;;;;;;5019002;28;20201;-76
2023/04/26 00:38:49;;;;;;;3.57;1.27;;;6.80;96.90;;;;;;5030621;28;20174;-76
2023/04/26 00:41:14;;;;;;;3.77;1.20;;;6.70;96.90;;;;;;5014142;28;20177;-76
2023/04/26 00:43:40;;;;;;;3.70;1.23;;;6.70;97.10;;;;;;5030817;28;20197;-76
2023/04/26 00:46:07;;;;;;;2.73;1.30;;;6.60;97.20;;;;;;5030511;28;20593;-75
2023/04/26 00:48:35;;;;;;;2.85;1.40;;;6.60;97.30;;;;;;5047169;28;20177;-75
2023/04/26 00:51:01;;;;;;;3.47;1.35;;;6.60;97.50;;;;;;5029819;28;20648;-76
2023/04/26 00:53:29;;;;;;;4.65;1.65;;;6.60;97.70;;;;;;5034925;28;20204;-76
2023/04/26 00:55:55;;;;;;;2.80;1.50;;;6.50;97.80;;;;;;5031956;28;20198;-76
2023/04/26 00:58:21;;;;;;;3.63;1.33;;;6.50;97.90;;;;;;5029585;28;20670;-76
2023/04/26 01:00:49;;;;;;;8.13;1.67;;;6.50;98.10;;;;;;5012468;28;20620;-76
2023/04/26 01:03:14;;;;;;;3.35;1.30;;;6.50;98.30;;;;;;5029598;28;20643;-76
2023/04/26 01:05:49;;;;;;;4.10;1.45;;;6.40;98.30;;;;;;5031836;28;20782;-76
2023/04/26 01:08:19;;;;;;;4.97;1.92;;;6.40;98.40;;;;;;5030134;28;20173;-75
2023/04/26 01:10:49;;;;;;;2.90;1.35;;;6.40;98.60;;;;;;5013513;28;20182;-76
2023/04/26 01:13:15;;;;;;;4.85;1.90;;;6.40;98.80;;;;;;5020599;28;20213;-76
2023/04/26 01:15:45;;;;;;;4.22;1.70;;;6.40;99.00;;;;;;5020243;28;20560;-75
2023/04/26 01:18:12;;;;;;;4.15;1.90;;;6.40;99.30;;;;;;5030029;28;20174;-75
2023/04/26 01:20:38;;;;;;;2.80;1.60;;;6.30;99.20;;;;;;5012708;28;20169;-75
2023/04/26 01:23:05;;;;;;;3.88;1.60;;;6.30;99.30;;;;;;5028138;28;20185;-75
2023/04/26 01:25:31;;;;;;;4.95;1.67;;;6.30;99.50;;;;;;5029253;28;20177;-76
2023/04/26 01:27:57;;;;;;;4.68;1.40;;;6.40;99.70;;;;;;5028750;28;20176;-75
2023/04/26 01:30:24;;;;;;;4.00;1.40;;;6.40;99.80;;;;;;5012535;28;20173;-76
2023/04/26 01:32:50;;;;;;;6.38;1.65;;;6.40;99.90;;;;;;5032211;28;20190;-75
2023/04/26 01:35:16;;;;;;;3.95;1.50;;;6.30;99.90;;;;;;5016626;28;20264;-75
2023/04/26 01:37:42;;;;;;;2.70;1.40;;;6.30;99.90;;;;;;4999833;28;20170;-75
2023/04/26 01:40:09;;;;;;;4.17;1.47;;;6.30;99.90;;;;;;5015827;28;20569;-75
2023/04/26 01:42:36;;;;;;;2.03;1.00;;;6.30;99.90;;;;;;5034505;28;20971;-75
2023/04/26 01:45:02;;;;;;;3.27;1.63;;;6.30;99.90;;;;;;5034401;28;20174;-75
2023/04/26 01:47:48;;;;;;;3.58;1.45;;;6.30;99.90;;;;;;5025323;23;20287;-76
2023/04/26 01:50:14;;;;;;;3.30;1.20;;;6.20;99.90;;;;;;5025769;28;20578;-73
2023/04/26 01:52:39;;;;;;;2.37;1.43;;;6.20;99.90;;;;;;5032194;28;20181;-73
2023/04/26 01:55:06;;;;;;;4.87;1.60;;;6.20;99.90;;;;;;5031686;28;20619;-73
2023/04/26 01:57:31;;;;;;;2.67;1.20;;;6.20;99.90;;;;;;5032023;28;20205;-74
2023/04/26 01:59:58;;;;;;;4.80;1.50;;;6.10;99.90;;;;;;5031765;28;20562;-74
2023/04/26 02:02:25;;;;;;;3.13;1.77;;;6.10;99.90;;;;;;5032632;28;20265;-74
2023/04/26 02:04:50;;;;;;;3.17;1.43;;;6.10;99.90;;;;;;5031548;28;20617;-74
2023/04/26 02:07:16;;;;;;;4.30;1.80;;;6.10;99.90;;;;;;5015197;28;20178;-74
2023/04/26 02:09:45;;;;;;;2.47;1.48;;;6.10;99.90;;;;;;5033319;28;20568;-74
2023/04/26 02:12:11;;;;;;;5.18;1.33;;;6.00;99.90;;;;;;5014876;28;20233;-74
2023/04/26 02:14:37;;;;;;;3.00;1.25;;;6.00;99.90;;;;;;5031546;28;20193;-74
2023/04/26 02:17:03;;;;;;;4.10;1.90;;;6.00;99.90;;;;;;5015070;28;20177;-74
2023/04/26 02:19:29;;;;;;;4.65;1.73;;;5.90;99.90;;;;;;5032985;28;20190;-74
2023/04/26 02:21:57;;;;;;;2.40;1.30;;;5.90;99.90;;;;;;5030248;28;20263;-74
2023/04/26 02:24:23;;;;;;;3.90;1.75;;;5.90;99.90;;;;;;5027135;28;20169;-74
2023/04/26 02:26:50;;;;;;;2.83;1.70;;;5.90;99.90;;;;;;5034140;28;20187;-74
2023/04/26 02:29:16;;;;;;;2.67;1.70;;;5.90;99.90;;;;;;5034674;28;20692;-74
2023/04/26 02:31:42;;;;;;;3.15;1.58;;;5.80;99.90;;;;;;5034196;28;20169;-74
2023/04/26 02:34:08;;;;;;;4.00;1.90;;;5.80;99.90;;;;;;5052521;28;20177;-74
2023/04/26 02:36:34;;;;;;;4.90;2.20;;;5.80;99.90;;;;;;5051098;28;21142;-74
2023/04/26 02:39:00;;;;;;;6.35;2.17;;;5.70;99.90;;;;;;5017879;28;20188;-74
2023/04/26 02:41:27;;;;;;;3.42;1.45;;;5.70;99.90;;;;;;5034563;28;20173;-74
2023/04/26 02:43:52;;;;;;;4.97;2.80;;;5.70;99.90;;;;;;5050220;28;20164;-74
2023/04/26 02:46:18;;;;;;;3.50;2.00;;;5.70;99.90;;;;;;5051002;28;20196;-74
2023/04/26 02:48:44;;;;;;;5.23;1.63;;;5.70;99.90;;;;;;5033797;28;20291;-74
2023/04/26 02:51:10;;;;;;;6.70;1.60;;;5.70;99.90;;;;;;5050827;28;20559;-74
2023/04/26 02:53:36;;;;;;;4.07;2.33;;;5.60;99.90;;;;;;5033965;28;20177;-74
2023/04/26 02:56:01;;;;;;;4.17;2.53;;;5.60;99.90;;;;;;5034086;28;20197;-74
2023/04/26 02:58:29;;;;;;;2.72;1.85;;;5.60;99.90;;;;;;5033846;28;21292;-74
2023/04/26 03:00:57;;;;;;;4.93;1.77;;;5.60;99.90;;;;;;5050821;28;20204;-74
2023/04/26 03:03:23;;;;;;;4.57;2.20;;;5.60;99.90;;;;;;5050727;28;20195;-74
2023/04/26 03:05:49;;;;;;;3.42;2.10;;;5.60;99.90;;;;;;5050321;28;20185;-74
2023/04/26 03:08:15;;;;;;;5.27;2.30;;;5.60;99.90;;;;;;5050597;28;20193;-74
2023/04/26 03:10:43;;;;;;;2.80;1.90;;;5.60;99.90;;;;;;5033577;28;20596;-74
2023/04/26 03:13:09;;;;;;;5.03;1.98;;;5.50;99.90;;;;;;5033815;28;20603;-74
2023/04/26 03:15:35;;;;;;;4.60;1.90;;;5.50;99.90;;;;;;5032901;28;20649;-74
2023/04/26 03:18:00;;;;;;;4.17;2.77;;;5.50;99.90;;;;;;5026179;28;20205;-74
2023/04/26 03:20:26;;;;;;;7.40;2.63;;;5.50;99.90;;;;;;5041631;28;20172;-74
2023/04/26 03:22:52;;;;;;;4.90;2.17;;;5.50;99.90;;;;;;5015936;28;20650;-74
2023/04/26 03:25:18;;;;;;;4.18;2.22;;;5.50;99.90;;;;;;5013476;28;20695;-74
2023/04/26 03:27:44;;;;;;;5.10;2.57;;;5.50;99.90;;;;;;5013655;28;20347;-74
2023/04/26 03:30:12;;;;;;;4.35;2.15;;;5.40;99.90;;;;;;5030277;28;20572;-74
2023/04/26 03:32:38;;;;;;;5.72;2.10;;;5.40;99.90;;;;;;5029699;28;20181;-74
2023/04/26 03:35:04;;;;;;;3.93;1.80;;;5.40;99.90;;;;;;5030313;28;20205;-74
2023/04/26 03:37:31;;;;;;;4.25;2.15;;;5.40;99.90;;;;;;5013042;28;20166;-74
2023/04/26 03:40:03;;;;;;;8.02;2.80;;;5.40;99.90;;;;;;5030226;28;20169;-74
2023/04/26 03:42:28;;;;;;;4.13;2.35;;;5.40;99.90;;;;;;5013120;28;20184;-74
2023/04/26 03:44:54;;;;;;;3.93;2.50;;;5.40;99.90;;;;;;5013735;28;20178;-74
2023/04/26 03:47:21;;;;;;;4.35;2.40;;;5.40;99.90;;;;;;5029322;28;20166;-74
2023/04/26 03:49:47;;;;;;;3.55;2.20;;;5.30;99.90;;;;;;5030091;28;20182;-74
2023/04/26 03:52:13;;;;;;;6.03;2.65;;;5.30;99.90;;;;;;5013142;28;20196;-74
2023/04/26 03:54:39;;;;;;;5.20;2.50;;;5.30;99.90;;;;;;5012550;28;20209;-74
2023/04/26 03:57:05;;;;;;;10.00;3.37;;;5.30;99.90;;;;;;5029543;28;20181;-74
2023/04/26 03:59:31;;;;;;;4.70;2.50;;;5.30;99.90;;;;;;5029731;28;21201;-75
2023/04/26 04:01:58;;;;;;;3.88;2.80;;;5.30;99.90;;;;;;5031114;28;20162;-74
2023/04/26 04:04:25;;;;;;;6.03;3.13;;;5.20;99.90;;;;;;5029641;28;20209;-74
2023/04/26 04:06:51;;;;;;;3.37;2.10;;;5.20;99.90;;;;;;5029825;28;20205;-73
2023/04/26 04:09:16;;;;;;;4.50;2.60;;;5.20;99.90;;;;;;5029298;28;20263;-73
2023/04/26 04:11:42;;;;;;;7.60;2.50;;;5.20;99.90;;;;;;5030004;28;20170;-74
2023/04/26 04:14:08;;;;;;;6.20;2.50;;;5.20;99.90;;;;;;5018256;28;20181;-74
2023/04/26 04:16:34;;;;;;;8.70;2.40;;;5.20;99.90;;;;;;5037557;28;20672;-74
2023/04/26 04:18:59;;;;;;;4.20;2.70;;;5.20;99.90;;;;;;5012791;28;20201;-74
2023/04/26 04:21:26;;;;;;;6.55;2.63;;;5.20;99.90;;;;;;5029857;28;20734;-74
2023/04/26 04:23:52;;;;;;;4.05;2.20;;;5.20;99.90;;;;;;5029874;28;20669;-74
2023/04/26 04:26:18;;;;;;;4.97;2.43;;;5.20;99.90;;;;;;5013098;28;20212;-74
2023/04/26 04:28:45;;;;;;;7.13;2.87;;;5.20;99.90;;;;;;5013388;28;20284;-74
2023/04/26 04:31:12;;;;;;;4.53;2.40;;;5.20;99.90;;;;;;5012791;28;20931;-74
2023/04/26 04:33:38;;;;;;;4.10;2.85;;;5.20;99.90;;;;;;4996756;28;20200;-74
2023/04/26 04:36:06;;;;;;;9.52;2.70;;;5.20;99.90;;;;;;5012751;28;20279;-74
2023/04/26 04:38:32;;;;;;;6.30;2.50;;;5.20;99.90;;;;;;5013337;28;20217;-74
2023/04/26 04:40:57;;;;;;;4.50;2.83;;;5.30;99.90;;;;;;5029188;28;20571;-74
2023/04/26 04:43:23;;;;;;;5.50;2.65;;;5.20;99.90;;;;;;5029525;28;20629;-74
2023/04/26 04:45:49;;;;;;;5.22;2.65;;;5.30;99.90;;;;;;5012829;28;20170;-74
2023/04/26 04:48:15;;;;;;;6.63;3.10;;;5.30;99.90;;;;;;5030685;28;20232;-74
2023/04/26 04:50:43;;;;;;;3.50;2.88;;;5.30;99.90;;;;;;5013067;28;20591;-74
2023/04/26 04:53:09;;;;;;;5.87;3.10;;;5.40;99.90;;;;;;5029545;28;20182;-74
2023/04/26 04:55:36;;;;;;;3.53;2.30;;;5.40;99.90;;;;;;5012972;28;20632;-74
2023/04/26 04:58:02;;;;;;;4.55;2.85;;;5.50;99.90;;;;;;5029561;28;20292;-75
2023/04/26 05:00:30;;;;;;;4.13;2.47;;;5.60;99.90;;;;;;5013019;28;20165;-74
2023/04/26 05:03:08;;;;;;;4.82;2.10;;;5.60;99.90;;;;;;5012805;28;20227;-74
2023/04/26 05:05:34;;;;;;;2.90;1.92;;;5.70;99.90;;;;;;5029491;28;20545;-74
2023/04/26 05:08:00;;;;;;;5.82;2.33;;;5.70;99.90;;;;;;5032848;28;20669;-74
2023/04/26 05:10:26;;;;;;;6.30;2.60;;;5.80;99.90;;;;;;5042093;28;20259;-74
2023/04/26 05:12:52;;;;;;;4.75;2.40;;;5.90;99.90;;;;;;5027577;28;20543;-73
2023/04/26 05:15:18;;;;;;;7.37;2.30;;;6.00;99.90;;;;;;5052557;28;20200;-73
2023/04/26 05:17:44;;;;;;;4.00;2.40;;;6.00;99.90;;;;;;5052146;28;20676;-73
2023/04/26 05:20:15;;;;;;;9.05;3.22;;;6.10;99.90;;;;;;5036574;28;20572;-73
2023/04/26 05:22:42;;;;;;;9.18;3.17;;;6.10;99.90;;;;;;5035751;28;20841;-73
2023/04/26 05:25:09;;;;;;;5.17;2.90;;;6.20;99.90;;;;;;5016343;28;20169;-73
2023/04/26 05:27:36;;;;;;;11.43;3.58;;;6.30;99.90;;;;;;5016144;28;20276;-74
2023/04/26 05:30:20;;;;;;;7.25;3.53;;;6.40;99.90;;;;;;5032576;28;20177;-73
2023/04/26 05:32:57;;;;;;;6.10;2.95;;;6.50;99.90;;;;;;5032786;28;20255;-73
2023/04/26 05:35:33;;;;;;;6.15;3.20;;;6.60;99.90;;;;;;5015662;28;20201;-73
2023/04/26 05:37:58;;;;;;;8.23;3.20;;;6.70;99.90;;;;;;5016029;28;20213;-73
2023/04/26 05:40:25;;;;;;;5.55;3.65;;;6.90;99.90;;;;;;5032055;28;20627;-74
2023/04/26 05:42:51;;;;;;;6.93;3.83;;;7.00;99.90;;;;;;5032365;28;20177;-73
2023/04/26 05:45:17;;;;;;;8.73;3.67;;;7.20;99.90;;;;;;5015607;28;20184;-73
2023/04/26 05:47:42;;;;;;;9.60;4.07;;;7.40;99.90;;;;;;5015475;28;20200;-73
2023/04/26 05:50:09;;;;;;;11.73;4.93;;;7.50;99.90;;;;;;5033126;28;20584;-74
2023/04/26 05:52:34;;;;;;;5.25;4.00;;;7.70;99.90;;;;;;5031272;28;20169;-73
2023/04/26 05:55:04;;;;;;;8.82;3.65;;;7.80;99.90;;;;;;5031000;28;20652;-73
2023/04/26 05:57:30;;;;;;;8.00;3.95;;;7.90;99.90;;;;;;5031971;28;20189;-73
2023/04/26 05:59:56;;;;;;;7.20;4.87;;;8.10;99.90;;;;;;5015476;28;20251;-72
2023/04/26 06:02:22;;;;;;;8.57;4.70;;;8.20;99.90;;;;;;5031913;28;21189;-73
2023/04/26 06:04:48;;;;;;;7.50;4.13;;;8.30;99.90;;;;;;5015548;28;20572;-72
2023/04/26 06:07:16;;;;;;;8.77;5.05;;;8.40;99.90;;;;;;5022779;28;20182;-73
2023/04/26 06:09:45;;;;;;;7.45;5.18;;;8.40;99.90;;;;;;5030765;28;20176;-72
2023/04/26 06:12:11;;;;;;;7.50;4.73;;;8.50;99.90;;;;;;5034289;28;20533;-73
2023/04/26 06:14:40;;;;;;;7.88;5.40;;;8.60;99.90;;;;;;5015208;28;20224;-73
2023/04/26 06:17:10;;;;;;;10.63;4.43;;;8.70;99.90;;;;;;5016160;28;20178;-73
2023/04/26 06:19:36;;;;;;;8.20;5.50;;;8.80;99.90;;;;;;5034194;28;20558;-73
2023/04/26 06:22:01;;;;;;;10.73;5.30;;;9.00;99.90;;;;;;5031210;28;20165;-74
2023/04/26 06:24:29;;;;;;;7.80;4.20;;;9.20;99.90;;;;;;5031775;28;20624;-74
2023/04/26 06:26:55;;;;;;;7.28;4.35;;;9.70;99.90;;;;;;5031462;28;20173;-73
2023/04/26 06:29:20;;;;;;;6.97;4.07;;;10.50;99.90;;;;;;5031173;28;20608;-74
2023/04/26 06:31:47;;;;;;;10.00;4.20;;;11.60;99.90;;;;;;5015048;28;20174;-74
2023/04/26 06:34:13;;;;;;;10.73;5.47;;;12.80;99.90;;;;;;5014457;28;20913;-73
2023/04/26 06:36:39;;;;;;;14.73;5.20;;;14.00;99.90;;;;;;5031295;28;20673;-74
2023/04/26 06:39:05;;;;;;;7.77;4.23;;;15.20;99.90;;;;;;5014497;28;20278;-74
2023/04/26 06:41:32;;;;;;;8.80;4.13;;;16.30;99.90;;;;;;5031585;28;20181;-73
2023/04/26 06:43:57;;;;;;;6.53;3.10;;;17.40;99.90;;;;;;5014503;28;20581;-73
2023/04/26 06:46:29;;;;;;;7.57;4.30;;;18.10;99.90;;;;;;5031075;28;20260;-73
2023/04/26 06:48:55;;;;;;;7.73;3.83;;;18.80;99.90;;;;;;5032363;28;21379;-74
2023/04/26 06:51:21;;;;;;;4.47;3.10;;;19.30;99.90;;;;;;5030785;28;20180;-74
2023/04/26 06:53:47;;;;;;;7.97;3.40;;;19.70;99.90;;;;;;5031128;28;20202;-74
2023/04/26 06:56:13;;;;;;;6.27;4.03;;;20.20;99.90;;;;;;5031691;28;20201;-73
2023/04/26 06:58:39;;;;;;;6.37;4.30;;;20.70;99.90;;;;;;5032200;28;20592;-73
2023/04/26 07:01:07;;;;;;;6.93;3.43;;;21.20;99.90;;;;;;5031822;28;20925;-74
2023/04/26 07:03:33;;;;;;;8.10;3.77;;;21.50;99.90;;;;;;5031906;28;20190;-73
2023/04/26 07:05:58;;;;;;;5.93;3.67;;;21.70;99.40;;;;;;5038283;28;21023;-74
2023/04/26 07:08:24;;;;;;;5.10;3.00;;;21.90;98.20;;;;;;5014411;28;20693;-73
2023/04/26 07:10:50;;;;;;;3.80;2.37;;;22.00;96.50;;;;;;5030810;28;20261;-73
2023/04/26 07:13:16;;;;;;;7.07;2.67;;;21.90;95.50;;;;;;5028442;28;20771;-73
2023/04/26 07:15:42;;;;;;;7.27;2.90;;;21.90;94.70;;;;;;5030362;28;21467;-73
2023/04/26 07:18:08;;;;;;;6.23;3.13;;;21.90;94.00;;;;;;5029940;28;20197;-74
2023/04/26 07:20:35;;;;;;;5.60;3.60;;;21.80;93.40;;;;;;5031884;28;20260;-73
2023/04/26 07:23:00;;;;;;;6.80;2.90;;;21.80;92.40;;;;;;5030952;28;21024;-73
2023/04/26 07:25:27;;;;;;;7.47;3.73;;;21.60;91.70;;;;;;5032047;28;20264;-73
2023/04/26 07:27:52;;;;;;;5.57;2.80;;;21.40;90.60;;;;;;5030894;28;20632;-72
2023/04/26 07:30:18;;;;;;;4.60;3.17;;;21.30;90.60;;;;;;5030307;28;20231;-72
2023/04/26 07:32:44;;;;;;;5.83;2.90;;;21.20;90.20;;;;;;5031593;28;20178;-72
2023/04/26 07:35:14;;;;;;;11.43;3.37;;;21.20;90.50;;;;;;5029866;28;20239;-73
2023/04/26 07:37:42;;;;;;;5.60;2.83;;;21.30;89.90;;;;;;5030199;28;20189;-73
2023/04/26 07:40:09;;;;;;;7.03;2.63;;;21.30;89.50;;;;;;5031277;28;20576;-73
2023/04/26 07:42:35;;;;;;;5.23;2.60;;;21.30;89.00;;;;;;5030016;28;20680;-73
2023/04/26 07:45:00;;;;;;;11.07;3.50;;;21.20;87.80;;;;;;5030984;28;20671;-72
2023/04/26 07:47:26;;;;;;;5.83;3.37;;;21.20;86.30;;;;;;5029873;28;20178;-72
2023/04/26 07:49:53;;;;;;;5.80;2.60;;;21.00;85.20;;;;;;5031783;28;20592;-71
2023/04/26 07:52:19;;;;;;;7.13;3.30;;;20.80;84.60;;;;;;5029586;28;20180;-70
2023/04/26 07:54:46;;;;;;;6.77;1.80;;;20.60;82.90;;;;;;5031294;28;20658;-71
2023/04/26 07:57:12;;;;;;;6.87;2.30;;;20.50;82.40;;;;;;5029076;28;20588;-71
2023/04/26 07:59:37;;;;;;;4.27;1.90;;;20.20;81.00;;;;;;5035637;28;20642;-72
2023/04/26 08:02:03;;;;;;;3.90;1.50;;;19.90;80.30;;;;;;5042296;28;20180;-71
2023/04/26 08:04:34;;;;;;;9.80;2.60;;;19.60;79.20;;;;;;5051225;28;20161;-71
2023/04/26 08:07:03;;;;;;;4.10;1.40;;;19.20;78.00;;;;;;5049100;28;20165;-72
2023/04/26 08:09:29;;;;;;;3.20;1.70;;;18.80;78.60;;;;;;5032745;28;20613;-72
2023/04/26 08:11:55;;;;;;;5.03;2.13;;;18.50;77.30;;;;;;5030987;28;20564;-72
2023/04/26 08:14:21;;;;;;;4.70;2.03;;;18.30;77.80;;;;;;5025781;28;20608;-71
2023/04/26 08:16:47;;;;;;;5.07;1.80;;;18.30;79.10;;;;;;5026460;28;20577;-71
2023/04/26 08:19:13;;;;;;;4.23;1.53;;;18.40;80.30;;;;;;5009556;28;20616;-71
2023/04/26 08:21:38;;;;;;;4.70;2.00;;;18.50;81.00;;;;;;5016942;28;20177;-71
2023/04/26 08:24:04;;;;;;;6.23;1.60;;;18.60;80.30;;;;;;5029324;28;20211;-71
2023/04/26 08:26:30;;;;;;;3.60;1.40;;;18.80;80.90;;;;;;5029573;28;20176;-71
2023/04/26 08:28:56;;;;;;;4.27;1.53;;;19.10;81.20;;;;;;5029420;28;20707;-71
2023/04/26 08:31:22;;;;;;;4.63;1.73;;;19.40;81.10;;;;;;5029302;28;20174;-71
2023/04/26 08:33:47;;;;;;;5.83;1.67;;;19.70;80.60;;;;;;5030880;28;20584;-71
2023/04/26 08:36:14;;;;;;;3.90;1.97;;;20.10;81.60;;;;;;5028785;28;20953;-71
2023/04/26 08:38:39;;;;;;;3.67;1.87;;;20.40;81.10;;;;;;5029564;28;20554;-72
2023/04/26 08:41:08;;;;;;;4.10;1.60;;;20.60;80.00;;;;;;5013521;28;20629;-72
2023/04/26 08:43:37;;;;;;;7.83;1.93;;;20.70;78.70;;;;;;5033412;28;20197;-71
2023/04/26 08:46:09;;;;;;;4.10;1.57;;;20.80;76.80;;;;;;5032982;28;20576;-71
2023/04/26 08:48:36;;;;;;;3.10;1.80;;;20.70;74.40;;;;;;5033092;28;20719;-71
2023/04/26 08:51:02;;;;;;;8.20;2.00;;;20.70;74.60;;;;;;5033358;28;20600;-71
2023/04/26 08:53:30;;;;;;;4.13;1.77;;;20.50;73.90;;;;;;5034053;28;20873;-71
2023/04/26 08:55:56;;;;;;;5.90;1.87;;;20.50;73.80;;;;;;5034210;28;20648;-71
2023/04/26 08:58:22;;;;;;;4.50;2.30;;;20.60;74.50;;;;;;5040303;28;20619;-71
2023/04/26 09:00:49;;;;;;;8.00;4.10;;;20.60;73.40;;;;;;5034530;28;20580;-71
2023/04/26 09:03:15;;;;;;;4.00;2.70;;;20.40;73.00;;;;;;5033873;28;21138;-71
2023/04/26 09:05:45;;;;;;;5.97;2.60;;;20.50;73.40;;;;;;5032851;28;20692;-71
2023/04/26 09:08:17;;;;;;;4.53;2.40;;;20.40;72.80;;;;;;5033865;28;20604;-71
2023/04/26 09:10:43;;;;;;;3.80;1.80;;;20.40;71.10;;;;;;5033063;28;20638;-72
2023/04/26 09:13:08;;;;;;;2.90;2.40;;;20.30;71.60;;;;;;5032903;28;20610;-71
2023/04/26 09:15:34;;;;;;;5.27;2.10;;;20.10;71.10;;;;;;5012233;28;21257;-71
2023/04/26 09:18:21;;;;;;;4.90;2.23;;;20.00;70.00;;;;;;5005061;28;20208;-71
2023/04/26 09:21:07;;;;;;;5.10;2.30;;;19.70;68.00;;;;;;5040176;28;20173;-72
2023/04/26 09:23:34;;;;;;;4.53;2.33;;;19.40;68.30;;;;;;5029071;28;20568;-72
2023/04/26 09:26:19;;;;;;;4.73;2.23;;;19.30;70.20;;;;;;5033151;28;20970;-72
2023/04/26 09:28:46;;;;;;;5.07;2.90;;;19.60;68.60;;;;;;5031648;28;21283;-72
2023/04/26 09:31:42;;;;;;;3.03;2.10;;;19.70;70.20;;;;;;5033444;28;20572;-73
2023/04/26 09:34:10;;;;;;;4.73;2.30;;;19.80;70.20;;;;;;5033490;28;20587;-72
2023/04/26 09:36:49;;;;;;;4.53;1.87;;;19.80;69.10;;;;;;5031840;28;20735;-72
2023/04/26 09:39:30;;;;;;;6.13;2.30;;;19.60;66.50;;;;;;5033578;28;20592;-72
2023/04/26 09:41:56;;;;;;;3.43;2.40;;;19.30;64.60;;;;;;5032235;28;20603;-71
2023/04/26 09:44:23;;;;;;;5.67;1.93;;;19.00;65.10;;;;;;5033924;28;20981;-72
2023/04/26 09:47:00;;;;;;;3.90;2.00;;;18.70;65.10;;;;;;5032304;28;20759;-72
2023/04/26 09:49:30;;;;;;;6.63;2.80;;;18.40;63.40;;;;;;5031896;28;21008;-72
2023/04/26 09:52:03;;;;;;;5.00;2.00;;;18.10;64.20;;;;;;5023465;28;20608;-72
2023/04/26 09:54:42;;;;;;;5.53;2.10;;;17.90;63.30;;;;;;5045986;28;20587;-71
2023/04/26 09:57:08;;;;;;;3.67;2.03;;;17.60;62.80;;;;;;5051707;28;20571;-71
2023/04/26 09:59:48;;;;;;;9.50;3.37;;;17.40;63.90;;;;;;5033660;28;20669;-72
2023/04/26 10:02:25;;;;;;;5.37;1.90;;;17.20;63.10;;;;;;5033353;28;20888;-72
2023/04/26 10:04:53;;;;;;;6.70;2.80;;;17.00;63.70;;;;;;5032929;28;20576;-71
2023/04/26 10:07:21;;;;;;;8.60;3.17;;;16.90;64.20;;;;;;5033024;28;20979;-72
2023/04/26 10:09:48;;;;;;;6.07;2.60;;;16.80;65.30;;;;;;5032452;28;21365;-71
2023/04/26 10:12:16;;;;;;;5.07;2.20;;;16.90;65.70;;;;;;5031877;28;20779;-72
2023/04/26 10:14:43;;;;;;;4.50;2.70;;;17.00;66.10;;;;;;5028156;28;20653;-72
2023/04/26 10:17:10;;;;;;;4.13;2.33;;;17.10;66.40;;;;;;5011233;28;20668;-72
2023/04/26 10:19:38;;;;;;;4.20;2.77;;;17.20;66.40;;;;;;5013310;28;20605;-72
2023/04/26 10:22:08;;;;;;;5.83;1.87;;;17.40;66.80;;;;;;5022034;28;20619;-72
2023/04/26 10:24:37;;;;;;;4.03;1.83;;;17.60;67.70;;;;;;5031525;28;20589;-72
2023/04/26 10:27:04;;;;;;;3.93;1.70;;;18.10;69.20;;;;;;5030710;28;20576;-72
2023/04/26 10:29:55;;;;;;;5.00;2.23;;;18.80;71.40;;;;;;5014981;28;20715;-73
2023/04/26 10:32:21;;;;;;;3.83;1.47;;;19.60;70.90;;;;;;5030533;28;20579;-72
2023/04/26 10:35:12;;;;;;;3.13;1.90;;;20.50;72.40;;;;;;5031418;28;21202;-71
2023/04/26 10:38:00;;;;;;;4.57;1.57;;;21.10;70.40;;;;;;5030582;28;20619;-71
2023/04/26 10:40:38;;;;;;;2.30;1.17;;;21.90;71.50;;;;;;5032597;28;20565;-72
2023/04/26 10:43:27;;;;;;;5.00;2.40;;;22.50;70.20;;;;;;5030799;28;21147;-72
2023/04/26 10:45:55;;;;;;;3.70;1.93;;;22.80;67.80;;;;;;5031149;28;20624;-72
2023/04/26 10:48:27;;;;;;;4.20;2.30;;;22.80;64.60;;;;;;5035385;28;20650;-71
2023/04/26 10:51:00;;;;;;;6.50;4.37;;;22.70;63.50;;;;;;5042491;28;20619;-71
2023/04/26 10:53:48;;;;;;;5.97;3.47;;;22.50;62.00;;;;;;5050990;28;20594;-71
2023/04/26 10:56:22;;;;;;;3.80;2.10;;;22.20;60.60;;;;;;5050269;28;20630;-71
2023/04/26 10:58:49;;;;;;;4.93;1.90;;;22.10;61.70;;;;;;5052259;28;20721;-72
2023/04/26 11:01:19;;;;;;;3.97;1.90;;;22.10;62.80;;;;;;5050175;28;21126;-72
2023/04/26 11:03:57;;;;;;;2.20;1.40;;;22.20;63.00;;;;;;5050498;28;20560;-72
2023/04/26 11:06:45;;;;;;;5.20;2.73;;;22.40;62.50;;;;;;5033497;28;20645;-72
2023/04/26 11:09:51;;;;;;;5.70;1.60;;;22.50;62.00;;;;;;5052007;28;20942;-72
2023/04/26 11:12:16;;;;;;;5.80;3.00;;;22.30;60.20;;;;;;4953870;28;20591;-72
2023/04/26 11:14:44;;;;;;;8.00;4.53;;;22.20;60.00;;;;;;4961431;28;20605;-72
2023/04/26 11:17:11;;;;;;;3.60;2.43;;;22.20;60.00;;;;;;4989486;28;20788;-71
2023/04/26 11:19:37;;;;;;;9.60;4.70;;;22.20;59.60;;;;;;5010794;28;20637;-72
2023/04/26 11:22:06;;;;;;;4.40;1.80;;;22.10;59.30;;;;;;5022048;28;20959;-72
2023/04/26 11:24:35;;;;;;;4.97;2.07;;;22.20;58.90;;;;;;5030530;28;20568;-71
2023/04/26 11:27:07;;;;;;;3.37;1.30;;;22.10;58.70;;;;;;5030264;28;20587;-72
2023/04/26 11:29:33;;;;;;;2.73;1.47;;;22.00;57.50;;;;;;5031098;28;20600;-72
2023/04/26 11:31:58;;;;;;;5.03;2.77;;;22.00;58.10;;;;;;5030104;28;21194;-72
2023/04/26 11:34:38;;;;;;;5.80;1.53;;;22.10;58.50;;;;;;5031100;28;20173;-72
2023/04/26 11:37:07;;;;;;;3.40;1.77;;;22.20;57.60;;;;;;5031221;28;20524;-72
2023/04/26 11:39:33;;;;;;;4.90;1.40;;;22.30;57.50;;;;;;5030908;28;20593;-72
2023/04/26 11:42:06;;;;;;;4.63;1.30;;;22.30;57.00;;;;;;5013853;28;21166;-72
2023/04/26 11:44:32;;;;;;;3.30;1.57;;;22.20;56.30;;;;;;5034361;28;20595;-72
2023/04/26 11:47:05;;;;;;;7.73;2.20;;;22.10;55.80;;;;;;5042774;28;20594;-72
2023/04/26 11:49:33;;;;;;;3.93;1.97;;;22.00;55.50;;;;;;5033230;28;20629;-72
2023/04/26 11:52:00;;;;;;;3.70;1.87;;;22.00;55.70;;;;;;5049464;28;21167;-72
2023/04/26 11:54:36;;;;;;;6.10;1.70;;;21.80;54.70;;;;;;5033472;28;20579;-72
2023/04/26 11:57:17;;;;;;;3.83;1.27;;;21.60;54.30;;;;;;5049169;28;20591;-71
2023/04/26 11:59:43;;;;;;;4.40;1.40;;;21.40;54.60;;;;;;5049810;28;20607;-72
2023/04/26 12:02:09;;;;;;;3.53;1.33;;;21.30;55.50;;;;;;5049199;28;20627;-72
2023/04/26 12:04:36;;;;;;;4.50;1.80;;;21.40;55.60;;;;;;5051036;28;20611;-71
2023/04/26 12:07:03;;;;;;;4.10;2.23;;;21.40;55.30;;;;;;5038232;28;20589;-71
2023/04/26 12:09:30;;;;;;;3.77;1.60;;;21.40;55.00;;;;;;5013337;28;20616;-72
2023/04/26 12:12:07;;;;;;;4.87;1.87;;;21.40;55.00;;;;;;5029343;28;21172;-72
2023/04/26 12:14:38;;;;;;;4.30;1.57;;;21.40;54.40;;;;;;5030532;28;20651;-72
2023/04/26 12:17:05;;;;;;;5.60;1.50;;;21.40;54.60;;;;;;5029938;28;20577;-72
2023/04/26 12:19:39;;;;;;;3.33;1.40;;;21.40;55.00;;;;;;5029058;28;20597;-73
2023/04/26 12:22:08;;;;;;;2.90;1.40;;;21.40;54.80;;;;;;5029270;28;20598;-72
2023/04/26 12:24:35;;;;;;;5.53;1.67;;;21.40;54.40;;;;;;5030369;28;20663;-72
2023/04/26 12:27:05;;;;;;;6.00;1.70;;;21.30;53.90;;;;;;5029487;28;20569;-72
2023/04/26 12:29:31;;;;;;;4.00;1.50;;;21.30;53.70;;;;;;5030108;28;20610;-72
2023/04/26 12:31:58;;;;;;;2.93;1.63;;;21.10;51.90;;;;;;5030666;28;21022;-71
2023/04/26 12:34:24;;;;;;;2.93;1.50;;;21.10;53.10;;;;;;5030537;28;20581;-72
2023/04/26 12:36:50;;;;;;;3.87;1.83;;;21.10;53.50;;;;;;5028971;28;20640;-72
2023/04/26 12:39:16;;;;;;;3.13;1.33;;;21.10;53.60;;;;;;5013031;28;21233;-72
2023/04/26 12:41:45;;;;;;;2.70;1.20;;;21.10;53.50;;;;;;5038046;28;20967;-71
2023/04/26 12:44:13;;;;;;;7.30;2.00;;;21.10;53.20;;;;;;5048157;28;20179;-72
2023/04/26 12:46:39;;;;;;;4.40;1.40;;;21.00;52.90;;;;;;5048536;28;20919;-72
2023/04/26 12:49:05;;;;;;;3.80;1.30;;;20.90;52.10;;;;;;5030914;28;20624;-72
2023/04/26 12:51:32;;;;;;;4.70;3.00;;;20.70;51.60;;;;;;5030135;28;21203;-72
2023/04/26 12:53:58;;;;;;;3.00;1.53;;;20.50;51.40;;;;;;5029340;28;20659;-71
2023/04/26 12:56:24;;;;;;;3.83;1.50;;;20.20;50.60;;;;;;5030408;28;20666;-72